createdAt,value
2023-03-06T00:02:38.126Z,8.77
2023-03-06T00:07:41.145Z,8.90
2023-03-06T00:12:43.875Z,7.20
2023-03-06T00:17:46.763Z,6.20
2023-03-06T00:22:49.817Z,8.32
2023-03-06T00:27:52.945Z,5.72
2023-03-06T00:32:55.667Z,9.90
2023-03-06T00:38:00.178Z,12.45
2023-03-06T00:43:02.837Z,17.38
2023-03-06T00:48:06.018Z,18.85
2023-03-06T00:53:08.878Z,22.63
2023-03-06T00:58:12.163Z,14.88
2023-03-06T01:03:14.818Z,14.38
2023-03-06T01:08:18.067Z,13.60
2023-03-06T01:13:20.841Z,10.80
2023-03-06T01:18:24.291Z,13.75
2023-03-06T01:23:26.990Z,10.93
2023-03-06T01:28:31.313Z,9.32
2023-03-06T01:33:34.739Z,12.75
2023-03-06T01:38:37.462Z,11.10
2023-03-06T01:43:42.773Z,10.10
2023-03-06T01:48:45.721Z,8.38
2023-03-06T01:53:49.557Z,9.35
2023-03-06T01:58:52.847Z,8.90
2023-03-06T02:03:56.139Z,9.13
2023-03-06T02:08:58.812Z,6.85
2023-03-06T02:14:02.177Z,9.23
2023-03-06T02:19:05.586Z,9.77
2023-03-06T02:24:08.227Z,8.18
2023-03-06T02:29:11.985Z,8.00
2023-03-06T02:34:14.600Z,8.52
2023-03-06T02:39:20.777Z,8.27
2023-03-06T02:44:24.446Z,7.82
2023-03-06T02:49:27.288Z,6.80
2023-03-06T02:54:29.988Z,6.93
2023-03-06T02:59:32.706Z,6.85
2023-03-06T03:04:35.815Z,5.90
2023-03-06T03:09:39.150Z,6.30
2023-03-06T03:14:41.897Z,5.53
2023-03-06T03:19:44.667Z,5.97
2023-03-06T03:24:47.784Z,6.30
2023-03-06T03:29:50.517Z,6.82
2023-03-06T03:34:56.501Z,6.15
2023-03-06T03:40:01.410Z,6.07
2023-03-06T03:45:06.767Z,6.03
2023-03-06T03:50:10.702Z,6.07
2023-03-06T03:55:13.812Z,5.50
2023-03-06T04:00:18.632Z,5.95
2023-03-06T04:05:33.760Z,5.78
2023-03-06T04:10:39.847Z,4.05
2023-03-06T04:15:44.350Z,4.60
2023-03-06T04:20:48.096Z,4.90
2023-03-06T04:25:51.622Z,3.67
2023-03-06T04:30:54.829Z,4.47
2023-03-06T04:35:58.570Z,4.20
2023-03-06T04:41:05.020Z,3.28
2023-03-06T04:46:07.749Z,2.40
2023-03-06T04:51:14.453Z,2.08
2023-03-06T04:56:17.198Z,2.30
2023-03-06T05:01:19.893Z,2.15
2023-03-06T05:06:26.518Z,1.95
2023-03-06T05:11:29.184Z,2.85
2023-03-06T05:16:31.961Z,1.58
2023-03-06T05:21:34.800Z,1.48
2023-03-06T05:26:37.443Z,2.08
2023-03-06T05:31:40.269Z,2.20
2023-03-06T05:36:43.465Z,1.50
2023-03-06T05:41:46.109Z,2.10
2023-03-06T05:46:49.743Z,1.45
2023-03-06T05:51:52.548Z,1.83
2023-03-06T05:57:03.139Z,2.83
2023-03-06T06:02:06.838Z,2.92
2023-03-06T06:07:14.176Z,2.78
2023-03-06T06:12:16.920Z,2.25
2023-03-06T06:17:19.738Z,1.92
2023-03-06T06:22:22.401Z,2.78
2023-03-06T06:27:25.051Z,2.38
2023-03-06T06:32:27.723Z,2.20
2023-03-06T06:37:30.852Z,2.05
2023-03-06T06:42:39.489Z,2.33
2023-03-06T06:47:43.555Z,2.70
2023-03-06T06:52:46.688Z,2.28
2023-03-06T06:57:49.496Z,2.67
2023-03-06T07:02:52.258Z,2.45
2023-03-06T07:07:54.879Z,2.70
2023-03-06T07:12:57.532Z,3.28
2023-03-06T07:18:01.658Z,2.75
2023-03-06T07:23:04.335Z,2.70
2023-03-06T07:28:07.361Z,3.05
2023-03-06T07:33:10.494Z,3.03
2023-03-06T07:38:14.580Z,3.05
2023-03-06T07:43:19.563Z,3.03
2023-03-06T07:48:32.612Z,2.80
2023-03-06T07:53:35.909Z,2.75
2023-03-06T07:58:40.287Z,3.20
2023-03-06T08:03:43.233Z,2.93
2023-03-06T08:08:47.041Z,3.10
2023-03-06T08:13:50.127Z,4.10
2023-03-06T08:18:52.781Z,3.83
2023-03-06T08:23:55.873Z,3.72
2023-03-06T08:28:59.982Z,4.28
2023-03-06T08:34:05.629Z,4.00
2023-03-06T08:39:08.888Z,4.30
2023-03-06T08:44:11.783Z,3.50
2023-03-06T08:49:14.677Z,4.13
2023-03-06T08:54:17.329Z,3.90
2023-03-06T08:59:20.130Z,3.55
2023-03-06T09:04:23.052Z,3.58
2023-03-06T09:09:25.825Z,3.45
2023-03-06T09:14:28.583Z,4.40
2023-03-06T09:19:31.243Z,4.50
2023-03-06T09:24:34.454Z,4.82
2023-03-06T09:29:37.161Z,5.53
2023-03-06T09:34:39.815Z,5.00
2023-03-06T09:39:42.543Z,5.60
2023-03-06T09:44:51.583Z,4.68
2023-03-06T09:50:00.002Z,4.40
2023-03-06T09:55:09.105Z,5.43
2023-03-06T10:00:16.157Z,5.32
2023-03-06T10:05:26.009Z,5.43
2023-03-06T10:10:45.138Z,4.82
2023-03-06T10:15:48.786Z,5.85
2023-03-06T10:21:13.392Z,5.60
2023-03-06T10:26:27.133Z,6.00
2023-03-06T10:31:29.908Z,6.05
2023-03-06T10:36:32.721Z,6.50
2023-03-06T10:41:38.720Z,6.32
2023-03-06T10:46:44.048Z,7.05
2023-03-06T10:52:20.374Z,7.32
2023-03-06T10:57:29.005Z,7.22
2023-03-06T11:02:33.173Z,7.20
2023-03-06T11:07:36.501Z,7.60
2023-03-06T11:12:40.946Z,6.90
2023-03-06T11:17:58.111Z,6.57
2023-03-06T11:23:31.146Z,6.13
2023-03-06T11:28:46.793Z,5.60
2023-03-06T11:34:02.382Z,6.10
2023-03-06T11:39:18.275Z,5.75
2023-03-06T11:44:30.320Z,5.30
2023-03-06T11:49:39.554Z,5.30
2023-03-06T11:54:42.216Z,5.88
2023-03-06T11:59:55.959Z,5.50
2023-03-06T12:05:33.799Z,5.32
2023-03-06T12:10:52.434Z,5.18
2023-03-06T12:16:07.582Z,4.35
2023-03-06T12:21:28.762Z,4.15
2023-03-06T12:26:50.425Z,4.78
2023-03-06T12:32:35.623Z,4.50
2023-03-06T12:37:38.333Z,3.72
2023-03-06T12:43:01.570Z,4.78
2023-03-06T12:48:19.898Z,4.93
2023-03-06T12:53:27.778Z,4.30
2023-03-06T12:58:30.551Z,4.85
2023-03-06T13:03:45.196Z,4.90
2023-03-06T13:13:50.648Z,5.95
2023-03-06T13:18:58.021Z,6.70
2023-03-06T13:24:15.069Z,6.30
2023-03-06T13:29:51.204Z,5.47
2023-03-06T13:34:56.868Z,5.60
2023-03-06T13:39:59.535Z,5.75
2023-03-06T13:45:25.551Z,5.63
2023-03-06T13:50:47.706Z,6.30
2023-03-06T13:56:26.548Z,6.82
2023-03-06T14:01:41.541Z,6.63
2023-03-06T14:06:52.320Z,6.05
2023-03-06T14:11:59.904Z,6.90
2023-03-06T14:17:05.251Z,7.07
2023-03-06T14:22:14.961Z,6.32
2023-03-06T14:27:19.247Z,7.38
2023-03-06T14:32:23.519Z,7.03
2023-03-06T14:37:26.231Z,8.50
2023-03-06T14:42:30.010Z,8.70
2023-03-06T14:47:35.462Z,6.57
2023-03-06T14:52:44.703Z,8.75
2023-03-06T14:58:18.598Z,8.90
2023-03-06T15:03:43.265Z,9.27
2023-03-06T15:14:05.968Z,8.43
2023-03-06T15:19:18.815Z,8.40
2023-03-06T15:24:39.578Z,8.68
2023-03-06T15:29:42.262Z,9.57
2023-03-06T15:34:45.121Z,7.88
2023-03-06T15:40:04.406Z,10.52
2023-03-06T15:45:16.271Z,10.07
2023-03-06T15:50:27.056Z,11.05
2023-03-06T15:55:29.812Z,11.13
2023-03-06T16:00:38.786Z,10.57
2023-03-06T16:05:41.678Z,9.18
2023-03-06T16:10:46.378Z,15.85
2023-03-06T16:15:52.461Z,13.10
2023-03-06T16:20:55.134Z,12.43
2023-03-06T16:25:57.841Z,15.02
2023-03-06T16:31:00.526Z,13.00
2023-03-06T16:36:12.634Z,14.65
2023-03-06T16:41:16.901Z,17.20
2023-03-06T16:46:22.114Z,15.85
2023-03-06T16:51:25.115Z,13.40
2023-03-06T16:56:27.750Z,14.75
2023-03-06T17:01:30.640Z,18.60
2023-03-06T17:06:33.558Z,16.15
2023-03-06T17:11:38.844Z,15.82
2023-03-06T17:16:42.488Z,14.18
2023-03-06T17:21:45.243Z,13.77
2023-03-06T17:26:48.842Z,16.98
2023-03-06T17:31:51.655Z,17.27
2023-03-06T17:36:54.516Z,15.27
2023-03-06T17:41:57.252Z,17.48
2023-03-06T17:46:59.938Z,16.08
2023-03-06T17:52:04.805Z,17.20
2023-03-06T17:57:07.517Z,16.27
2023-03-06T18:02:10.429Z,18.52
2023-03-06T18:07:13.409Z,17.60
2023-03-06T18:12:16.538Z,18.00
2023-03-06T18:17:19.239Z,20.05
2023-03-06T18:22:21.849Z,17.25
2023-03-06T18:27:24.653Z,19.75
2023-03-06T18:32:27.709Z,13.00
2023-03-06T18:37:30.548Z,17.50
2023-03-06T18:42:33.341Z,16.80
2023-03-06T18:47:36.059Z,18.38
2023-03-06T18:52:38.843Z,14.65
2023-03-06T18:57:41.765Z,17.08
2023-03-06T19:02:44.975Z,23.92
2023-03-06T19:07:47.889Z,17.42
2023-03-06T19:12:50.614Z,20.55
2023-03-06T19:17:53.365Z,18.55
2023-03-06T19:22:56.042Z,14.45
2023-03-06T19:27:58.909Z,21.38
2023-03-06T19:33:01.575Z,14.98
2023-03-06T19:38:04.340Z,13.30
2023-03-06T19:43:07.189Z,17.10
2023-03-06T19:48:11.706Z,14.40
2023-03-06T19:53:16.138Z,15.27
2023-03-06T19:58:18.796Z,12.77
2023-03-06T20:03:21.654Z,12.65
2023-03-06T20:08:24.323Z,12.38
2023-03-06T20:13:27.106Z,14.60
2023-03-06T20:18:29.948Z,9.60
2023-03-06T20:23:33.794Z,10.43
2023-03-06T20:28:38.584Z,10.48
2023-03-06T20:33:41.806Z,11.45
2023-03-06T20:38:45.303Z,8.40
2023-03-06T20:43:48.561Z,11.90
2023-03-06T20:48:52.635Z,13.90
2023-03-06T20:53:56.189Z,14.73
2023-03-06T20:58:59.377Z,14.63
2023-03-06T21:04:04.620Z,13.88
2023-03-06T21:09:07.595Z,16.23
2023-03-06T21:14:11.126Z,16.05
2023-03-06T21:19:13.852Z,18.90
2023-03-06T21:24:16.656Z,14.48
2023-03-06T21:29:19.520Z,18.95
2023-03-06T21:34:22.343Z,18.20
2023-03-06T21:39:25.052Z,17.88
2023-03-06T21:44:27.707Z,14.40
2023-03-06T21:49:30.760Z,20.65
2023-03-06T21:54:33.374Z,17.55
2023-03-06T21:59:37.611Z,19.17
2023-03-06T22:04:40.809Z,15.03
2023-03-06T22:09:43.465Z,13.23
2023-03-06T22:14:46.163Z,14.32
2023-03-06T22:19:49.684Z,9.90
2023-03-06T22:24:52.372Z,16.10
2023-03-06T22:29:55.059Z,15.20
2023-03-06T22:34:57.799Z,13.70
2023-03-06T22:40:00.647Z,14.13
2023-03-06T22:45:03.313Z,15.27
2023-03-06T22:50:06.743Z,15.98
2023-03-06T22:55:10.602Z,12.25
2023-03-06T23:00:14.934Z,13.65
2023-03-06T23:05:17.630Z,14.40
2023-03-06T23:10:20.578Z,15.93
2023-03-06T23:15:41.841Z,15.90
2023-03-06T23:21:10.655Z,16.15
2023-03-06T23:26:32.152Z,14.35
2023-03-06T23:31:34.919Z,18.05
2023-03-06T23:36:37.692Z,15.43
2023-03-06T23:41:40.750Z,12.90
2023-03-06T23:46:43.904Z,10.90
2023-03-06T23:51:46.588Z,8.95
2023-03-06T23:56:49.244Z,11.77
